• Join FlightAware (Why Join?)
  • Login
  • US Flag 
06:44PM EST


 

Airport Tracker/Info


-or-


 

Live Flight TrackerFlight Track Log ✈ AFL150 ✈ 17-Mar-2014 ✈ UUEE / SVO - MUHA / HAV

Flight Track Log - Related Links

Times and Time Zones

All times are in EDT time to prevent confusion due to time zone crossing. See the AFL150 flight status page for this flight to view local times or setup timezone preferences in your user account.

Time Position Orientation Groundspeed Altitude Reporting Facility
EDT Latitude Longitude Course Direction KTS MPH feet Rate Location/Type
05:23AM 56.1451 37.0606 319° Northwest  Level FlightAware Approximate
05:24AM 56.2321 36.9229 319° Northwest  Level FlightAware Approximate
05:25AM 56.3190 36.7846 319° Northwest  Level FlightAware Approximate
05:26AM 56.4057 36.6456 318° Northwest  Level FlightAware Approximate
05:27AM 56.4923 36.5061 318° Northwest  Level FlightAware Approximate
05:28AM 56.5787 36.3658 318° Northwest  Level FlightAware Approximate
05:29AM 56.6650 36.2250 318° Northwest  Level FlightAware Approximate
05:30AM 56.7511 36.0835 318° Northwest  Level FlightAware Approximate
05:31AM 56.8370 35.9413 318° Northwest  Level FlightAware Approximate
05:32AM 56.9228 35.7985 318° Northwest  Level FlightAware Approximate
05:33AM 57.0084 35.6550 318° Northwest  Level FlightAware Approximate
05:34AM 57.0939 35.5109 318° Northwest  Level FlightAware Approximate
05:35AM 57.1791 35.3661 317° Northwest  Level FlightAware Approximate
05:36AM 57.2643 35.2206 317° Northwest  Level FlightAware Approximate
05:37AM 57.3492 35.0745 317° Northwest  Level FlightAware Approximate
05:38AM 57.4340 34.9277 317° Northwest  Level FlightAware Approximate
05:39AM 57.5186 34.7802 317° Northwest  Level FlightAware Approximate
05:40AM 57.6048 34.6247 314° West  Level FlightAware Approximate
05:41AM 57.6849 34.4680 314° West  Level FlightAware Approximate
05:42AM 57.7648 34.3106 314° West  Level FlightAware Approximate
05:43AM 57.8445 34.1525 313° West  Level FlightAware Approximate
05:44AM 57.9240 33.9937 313° West  Level FlightAware Approximate
05:45AM 58.0033 33.8342 313° West  Level FlightAware Approximate
05:46AM 58.0824 33.6740 313° West  Level FlightAware Approximate
05:47AM 58.1613 33.5131 313° West  Level FlightAware Approximate
05:48AM 58.2399 33.3514 313° West  Level FlightAware Approximate
05:49AM 58.3184 33.1890 313° West  Level FlightAware Approximate
05:50AM 58.3967 33.0260 313° West  Level FlightAware Approximate
05:51AM 58.4748 32.8622 312° West  Level FlightAware Approximate
05:52AM 58.5526 32.6976 312° West  Level FlightAware Approximate
05:53AM 58.6303 32.5324 312° West  Level FlightAware Approximate
05:54AM 58.7077 32.3664 312° West  Level FlightAware Approximate
05:55AM 58.7849 32.1996 312° West  Level FlightAware Approximate
05:56AM 58.8619 32.0321 312° West  Level FlightAware Approximate
05:57AM 58.9387 31.8639 312° West  Level FlightAware Approximate
05:58AM 59.0153 31.6949 311° West  Level FlightAware Approximate
05:59AM 59.0916 31.5252 311° West  Level FlightAware Approximate
06:00AM 59.1677 31.3547 311° West  Level FlightAware Approximate
06:01AM 59.2436 31.1835 311° West  Level FlightAware Approximate
06:02AM 59.3193 31.0115 311° West  Level FlightAware Approximate
06:03AM 59.3947 30.8387 311° West  Level FlightAware Approximate
06:04AM 59.4700 30.6651 311° West  Level FlightAware Approximate
06:05AM 59.5449 30.4908 310° West  Level FlightAware Approximate
06:06AM 59.6197 30.3157 310° West  Level FlightAware Approximate
06:07AM 59.6942 30.1399 310° West  Level FlightAware Approximate
06:08AM 59.7685 29.9632 310° West  Level FlightAware Approximate
06:09AM 59.8425 29.7857 310° West  Level FlightAware Approximate
06:10AM 59.9163 29.6075 310° West  Level FlightAware Approximate
06:11AM 59.9899 29.4285 309° West  Level FlightAware Approximate
06:12AM 60.0632 29.2487 309° West  Level FlightAware Approximate
06:13AM 60.1363 29.0680 309° West  Level FlightAware Approximate
06:14AM 60.2091 28.8866 309° West  Level FlightAware Approximate
06:15AM 60.2817 28.7044 309° West  Level FlightAware Approximate
06:16AM 60.3540 28.5213 309° West  Level FlightAware Approximate
06:17AM 60.4261 28.3375 309° West  Level FlightAware Approximate
06:18AM 60.4979 28.1528 308° West  Level FlightAware Approximate
06:19AM 60.5695 27.9673 308° West  Level FlightAware Approximate
06:20AM 60.6408 27.7810 308° West  Level FlightAware Approximate
06:21AM 60.7118 27.5939 308° West  Level FlightAware Approximate
06:22AM 60.7826 27.4059 308° West  Level FlightAware Approximate
06:23AM 60.8531 27.2171 308° West  Level FlightAware Approximate
06:24AM 60.9234 27.0275 307° West  Level FlightAware Approximate
06:25AM 60.9933 26.8370 307° West  Level FlightAware Approximate
06:26AM 61.0631 26.6458 307° West  Level FlightAware Approximate
06:27AM 61.1325 26.4536 307° West  Level FlightAware Approximate
06:28AM 61.2017 26.2606 307° West  Level FlightAware Approximate
06:29AM 61.2706 26.0668 307° West  Level FlightAware Approximate
06:30AM 61.3392 25.8721 306° West  Level FlightAware Approximate
06:31AM 61.4075 25.6765 306° West  Level FlightAware Approximate
06:32AM 61.4756 25.4802 306° West  Level FlightAware Approximate
06:33AM 61.5434 25.2829 306° West  Level FlightAware Approximate
06:34AM 61.6108 25.0848 306° West  Level FlightAware Approximate
06:35AM 61.6780 24.8858 306° West  Level FlightAware Approximate
06:36AM 61.7449 24.6860 305° West  Level FlightAware Approximate
06:37AM 61.8116 24.4852 305° West  Level FlightAware Approximate
06:38AM 61.8779 24.2837 305° West  Level FlightAware Approximate
06:39AM 61.9439 24.0812 305° West  Level FlightAware Approximate
06:40AM 62.0096 23.8779 305° West  Level FlightAware Approximate
06:41AM 62.0751 23.6737 304° West  Level FlightAware Approximate
06:42AM 62.1402 23.4686 304° West  Level FlightAware Approximate
06:43AM 62.2050 23.2626 304° West  Level FlightAware Approximate
06:44AM 62.2695 23.0557 304° West  Level FlightAware Approximate
06:45AM 62.3337 22.8480 304° West  Level FlightAware Approximate
06:46AM 62.3976 22.6394 304° West  Level FlightAware Approximate
06:47AM 62.4612 22.4298 303° West  Level FlightAware Approximate
06:48AM 62.5245 22.2194 303° West  Level FlightAware Approximate
06:49AM 62.5874 22.0081 303° West  Level FlightAware Approximate
06:50AM 62.6500 21.7959 303° West  Level FlightAware Approximate
06:51AM 62.7123 21.5828 303° West  Level FlightAware Approximate
06:52AM 62.7743 21.3688 302° West  Level FlightAware Approximate
06:53AM 62.8360 21.1539 302° West  Level FlightAware Approximate
06:54AM 62.8973 20.9382 302° West  Level FlightAware Approximate
06:55AM 62.9583 20.7215 302° West  Level FlightAware Approximate
06:56AM 63.0190 20.5039 302° West  Level FlightAware Approximate
06:57AM 63.0793 20.2854 301° West  Level FlightAware Approximate
06:58AM 63.1393 20.0659 301° West  Level FlightAware Approximate
06:59AM 63.1989 19.8456 301° West  Level FlightAware Approximate
07:00AM 63.2582 19.6244 301° West  Level FlightAware Approximate
07:01AM 63.3172 19.4023 301° West  Level FlightAware Approximate
07:02AM 63.3758 19.1792 300° West  Level FlightAware Approximate
07:03AM 63.4341 18.9553 300° West  Level FlightAware Approximate
07:04AM 63.4920 18.7304 300° West  Level FlightAware Approximate
07:05AM 63.5495 18.5047 300° West  Level FlightAware Approximate
07:06AM 63.6068 18.2780 300° West  Level FlightAware Approximate
07:07AM 63.6636 18.0504 299° West  Level FlightAware Approximate
07:08AM 63.7201 17.8219 299° West  Level FlightAware Approximate
07:09AM 63.7762 17.5925 299° West  Level FlightAware Approximate
07:10AM 63.8320 17.3621 299° West  Level FlightAware Approximate
07:11AM 63.8873 17.1309 299° West  Level FlightAware Approximate
07:12AM 63.9424 16.8988 298° West  Level FlightAware Approximate
07:13AM 63.9970 16.6657 298° West  Level FlightAware Approximate
07:14AM 64.0513 16.4317 298° West  Level FlightAware Approximate
07:15AM 64.1052 16.1968 298° West  Level FlightAware Approximate
07:16AM 64.1587 15.9611 298° West  Level FlightAware Approximate
07:17AM 64.2118 15.7244 297° West  Level FlightAware Approximate
07:18AM 64.2646 15.4868 297° West  Level FlightAware Approximate
07:19AM 64.3169 15.2483 297° West  Level FlightAware Approximate
07:20AM 64.3689 15.0089 297° West  Level FlightAware Approximate
07:21AM 64.4205 14.7685 297° West  Level FlightAware Approximate
07:22AM 64.4716 14.5273 296° West  Level FlightAware Approximate
07:23AM 64.5224 14.2852 296° West  Level FlightAware Approximate
07:24AM 64.5728 14.0422 296° West  Level FlightAware Approximate
07:25AM 64.6228 13.7983 296° West  Level FlightAware Approximate
07:26AM 64.6724 13.5535 295° West  Level FlightAware Approximate
07:27AM 64.7216 13.3077 295° West  Level FlightAware Approximate
07:28AM 64.7703 13.0612 295° West  Level FlightAware Approximate
07:29AM 64.8187 12.8137 295° West  Level FlightAware Approximate
07:30AM 64.8667 12.5653 295° West  Level FlightAware Approximate
07:31AM 64.9142 12.3161 294° West  Level FlightAware Approximate
07:32AM 64.9613 12.0659 294° West  Level FlightAware Approximate
07:33AM 65.0080 11.8149 294° West  Level FlightAware Approximate
07:34AM 65.0543 11.5630 294° West  Level FlightAware Approximate
07:35AM 65.1001 11.3103 293° West  Level FlightAware Approximate
07:36AM 65.1455 11.0566 293° West  Level FlightAware Approximate
07:37AM 65.1905 10.8021 293° West  Level FlightAware Approximate
07:38AM 65.2351 10.5468 293° West  Level FlightAware Approximate
07:39AM 65.2792 10.2906 292° West  Level FlightAware Approximate
07:40AM 65.3229 10.0335 292° West  Level FlightAware Approximate
07:41AM 65.3661 9.7756 292° West  Level FlightAware Approximate
07:42AM 65.4089 9.5168 292° West  Level FlightAware Approximate
07:43AM 65.4513 9.2572 292° West  Level FlightAware Approximate
07:44AM 65.4932 8.9968 291° West  Level FlightAware Approximate
07:45AM 65.5347 8.7355 291° West  Level FlightAware Approximate
07:46AM 65.5757 8.4734 291° West  Level FlightAware Approximate
07:47AM 65.6162 8.2105 291° West  Level FlightAware Approximate
07:48AM 65.6563 7.9467 290° West  Level FlightAware Approximate
07:49AM 65.6960 7.6822 290° West  Level FlightAware Approximate
07:50AM 65.7352 7.4168 290° West  Level FlightAware Approximate
07:51AM 65.7739 7.1506 290° West  Level FlightAware Approximate
07:52AM 65.8122 6.8837 289° West  Level FlightAware Approximate
07:53AM 65.8500 6.6159 289° West  Level FlightAware Approximate
07:54AM 65.8873 6.3474 289° West  Level FlightAware Approximate
07:55AM 65.9242 6.0781 289° West  Level FlightAware Approximate
07:56AM 65.9606 5.8080 288° West  Level FlightAware Approximate
07:57AM 65.9965 5.5371 288° West  Level FlightAware Approximate
07:58AM 66.0319 5.2655 288° West  Level FlightAware Approximate
07:59AM 66.0669 4.9932 288° West  Level FlightAware Approximate
08:00AM 66.1013 4.7200 287° West  Level FlightAware Approximate
08:01AM 66.1353 4.4462 287° West  Level FlightAware Approximate
08:02AM 66.1688 4.1716 287° West  Level FlightAware Approximate
08:03AM 66.2019 3.8963 287° West  Level FlightAware Approximate
08:04AM 66.2344 3.6203 286° West  Level FlightAware Approximate
08:05AM 66.2664 3.3436 286° West  Level FlightAware Approximate
08:06AM 66.2980 3.0662 286° West  Level FlightAware Approximate
08:07AM 66.3290 2.7881 286° West  Level FlightAware Approximate
08:08AM 66.3596 2.5093 285° West  Level FlightAware Approximate
08:09AM 66.3896 2.2298 285° West  Level FlightAware Approximate
08:10AM 66.4192 1.9497 285° West  Level FlightAware Approximate
08:11AM 66.4482 1.6689 285° West  Level FlightAware Approximate
08:12AM 66.4767 1.3875 284° West  Level FlightAware Approximate
08:13AM 66.5048 1.1054 284° West  Level FlightAware Approximate
08:14AM 66.5323 0.8227 284° West  Level FlightAware Approximate
08:15AM 66.5593 0.5393 284° West  Level FlightAware Approximate
08:16AM 66.5858 0.2554 283° West  Level FlightAware Approximate
08:17AM 66.6118 -0.0291 283° West  Level FlightAware Approximate
08:18AM 66.6373 -0.3143 283° West  Level FlightAware Approximate
08:19AM 66.6622 -0.6000 283° West  Level FlightAware Approximate
08:20AM 66.6867 -0.8863 282° West  Level FlightAware Approximate
08:21AM 66.7106 -1.1731 282° West  Level FlightAware Approximate
08:22AM 66.7340 -1.4605 282° West  Level FlightAware Approximate
08:23AM 66.7568 -1.7484 282° West  Level FlightAware Approximate
08:24AM 66.7792 -2.0369 281° West  Level FlightAware Approximate
08:25AM 66.8010 -2.3259 281° West  Level FlightAware Approximate
08:26AM 66.8223 -2.6154 281° West  Level FlightAware Approximate
08:27AM 66.8430 -2.9054 280° West  Level FlightAware Approximate
08:28AM 66.8632 -3.1958 280° West  Level FlightAware Approximate
08:29AM 66.8829 -3.4868 280° West  Level FlightAware Approximate
08:30AM 66.9021 -3.7782 280° West  Level FlightAware Approximate
08:31AM 66.9207 -4.0701 279° West  Level FlightAware Approximate
08:32AM 66.9388 -4.3624 279° West  Level FlightAware Approximate
08:33AM 66.9563 -4.6551 279° West  Level FlightAware Approximate
08:34AM 66.9733 -4.9482 279° West  Level FlightAware Approximate
08:35AM 66.9898 -5.2418 278° West  Level FlightAware Approximate
08:36AM 67.0057 -5.5357 278° West  Level FlightAware Approximate
08:37AM 67.0211 -5.8300 278° West  Level FlightAware Approximate
08:38AM 67.0359 -6.1247 277° West  Level FlightAware Approximate
08:39AM 67.0502 -6.4198 277° West  Level FlightAware Approximate
08:40AM 67.0640 -6.7151 277° West  Level FlightAware Approximate
08:41AM 67.0772 -7.0108 277° West  Level FlightAware Approximate
08:42AM 67.0898 -7.3068 276° West  Level FlightAware Approximate
08:43AM 67.1019 -7.6032 276° West  Level FlightAware Approximate
08:44AM 67.1135 -7.8998 276° West  Level FlightAware Approximate
08:45AM 67.1245 -8.1967 276° West  Level FlightAware Approximate
08:46AM 67.1349 -8.4938 275° West  Level FlightAware Approximate
08:47AM 67.1448 -8.7912 275° West  Level FlightAware Approximate
08:48AM 67.1542 -9.0889 275° West  Level FlightAware Approximate
08:49AM 67.1630 -9.3867 274° West  Level FlightAware Approximate
08:50AM 67.1712 -9.6848 274° West  Level FlightAware Approximate
08:51AM 67.1789 -9.9831 274° West  Level FlightAware Approximate
08:52AM 67.1860 -10.2815 274° West  Level FlightAware Approximate
08:53AM 67.1926 -10.5802 273° West  Level FlightAware Approximate
08:54AM 67.1986 -10.8790 273° West  Level FlightAware Approximate
08:55AM 67.2040 -11.1779 273° West  Level FlightAware Approximate
08:56AM 67.2089 -11.4769 273° West  Level FlightAware Approximate
08:57AM 67.2133 -11.7761 272° West  Level FlightAware Approximate
08:58AM 67.2171 -12.0753 272° West  Level FlightAware Approximate
08:59AM 67.2203 -12.3747 272° West  Level FlightAware Approximate
09:00AM 67.2230 -12.6741 271° West  Level FlightAware Approximate
09:01AM 67.2251 -12.9736 271° West  Level FlightAware Approximate
09:02AM 67.2266 -13.2732 271° West  Level FlightAware Approximate
09:03AM 67.2276 -13.5727 271° West  Level FlightAware Approximate
09:04AM 67.2280 -13.8723 270° West  Level FlightAware Approximate
09:05AM 67.2279 -14.1719 270° West  Level FlightAware Approximate
09:06AM 67.2272 -14.4715 270° West  Level FlightAware Approximate
09:07AM 67.2260 -14.7710 270° West  Level FlightAware Approximate
09:08AM 67.2242 -15.0705 269° West  Level FlightAware Approximate
09:09AM 67.2218 -15.3700 269° West  Level FlightAware Approximate
09:10AM 67.2189 -15.6694 269° West  Level FlightAware Approximate
09:11AM 67.2154 -15.9687 268° West  Level FlightAware Approximate
09:12AM 67.2113 -16.2679 268° West  Level FlightAware Approximate
09:13AM 67.2067 -16.5670 268° West  Level FlightAware Approximate
09:14AM 67.2016 -16.8660 268° West  Level FlightAware Approximate
09:15AM 67.1959 -17.1649 267° West  Level FlightAware Approximate
09:16AM 67.1896 -17.4636 267° West  Level FlightAware Approximate
09:17AM 67.1828 -17.7621 267° West  Level FlightAware Approximate
09:18AM 67.1754 -18.0605 266° West  Level FlightAware Approximate
09:19AM 67.1675 -18.3587 266° West  Level FlightAware Approximate
09:20AM 67.1590 -18.6567 266° West  Level FlightAware Approximate
09:21AM 67.1499 -18.9544 266° West  Level FlightAware Approximate
09:22AM 67.1403 -19.2520 265° West  Level FlightAware Approximate
09:23AM 67.1302 -19.5493 265° West  Level FlightAware Approximate
09:24AM 67.1195 -19.8463 265° West  Level FlightAware Approximate
09:25AM 67.1082 -20.1431 265° West  Level FlightAware Approximate
09:26AM 67.0964 -20.4395 264° West  Level FlightAware Approximate
09:27AM 67.0841 -20.7357 264° West  Level FlightAware Approximate
09:28AM 67.0712 -21.0316 264° West  Level FlightAware Approximate
09:29AM 67.0577 -21.3272 263° West  Level FlightAware Approximate
09:30AM 67.0437 -21.6224 263° West  Level FlightAware Approximate
09:31AM 67.0292 -21.9173 263° West  Level FlightAware Approximate
09:32AM 67.0141 -22.2118 263° West  Level FlightAware Approximate
09:33AM 66.9985 -22.5059 262° West  Level FlightAware Approximate
09:34AM 66.9823 -22.7997 262° West  Level FlightAware Approximate
09:35AM 66.9656 -23.0930 262° West  Level FlightAware Approximate
09:36AM 66.9483 -23.3860 262° West  Level FlightAware Approximate
09:37AM 66.9305 -23.6785 261° West  Level FlightAware Approximate
09:38AM 66.9115 -23.9703 261° West  Level FlightAware Approximate
09:39AM 66.8920 -24.2617 260° West  Level FlightAware Approximate
09:40AM 66.8720 -24.5526 260° West  Level FlightAware Approximate
09:41AM 66.8515 -24.8431 260° West  Level FlightAware Approximate
09:42AM 66.8304 -25.1330 260° West  Level FlightAware Approximate
09:43AM 66.8088 -25.4224 259° West  Level FlightAware Approximate
09:44AM 66.7867 -25.7113 259° West  Level FlightAware Approximate
09:45AM 66.7641 -25.9998 259° West  Level FlightAware Approximate
09:46AM 66.7417 -26.2880 259° West  Level FlightAware Approximate
09:47AM 66.7188 -26.5758 259° West  Level FlightAware Approximate
09:48AM 66.6954 -26.8630 258° West  Level FlightAware Approximate
09:49AM 66.6714 -27.1496 258° West  Level FlightAware Approximate
09:50AM 66.6469 -27.4357 258° West  Level FlightAware Approximate
09:51AM 66.6219 -27.7212 258° West  Level FlightAware Approximate
09:52AM 66.5964 -28.0061 257° West  Level FlightAware Approximate
09:53AM 66.5704 -28.2905 257° West  Level FlightAware Approximate
09:54AM 66.5438 -28.5742 257° West  Level FlightAware Approximate
09:55AM 66.5167 -28.8573 257° West  Level FlightAware Approximate
09:56AM 66.4892 -29.1398 256° West  Level FlightAware Approximate
09:57AM 66.4611 -29.4217 256° West  Level FlightAware Approximate
09:58AM 66.4325 -29.7029 256° West  Level FlightAware Approximate
09:59AM 66.4034 -29.9835 256° West  Level FlightAware Approximate
10:00AM 66.3738 -30.2634 255° West  Level FlightAware Approximate
10:01AM 66.3437 -30.5427 255° West  Level FlightAware Approximate
10:02AM 66.3131 -30.8213 255° West  Level FlightAware Approximate
10:03AM 66.2820 -31.0992 255° West  Level FlightAware Approximate
10:04AM 66.2504 -31.3764 254° West  Level FlightAware Approximate
10:05AM 66.2184 -31.6529 254° West  Level FlightAware Approximate
10:06AM 66.1858 -31.9287 254° West  Level FlightAware Approximate
10:07AM 66.1527 -32.2038 254° West  Level FlightAware Approximate
10:08AM 66.1192 -32.4782 253° West  Level FlightAware Approximate
10:09AM 66.0851 -32.7518 253° West  Level FlightAware Approximate
10:10AM 66.0506 -33.0247 253° West  Level FlightAware Approximate
10:11AM 66.0156 -33.2968 253° West  Level FlightAware Approximate
10:12AM 65.9801 -33.5683 252° West  Level FlightAware Approximate
10:13AM 65.9442 -33.8389 252° West  Level FlightAware Approximate
10:14AM 65.9078 -34.1088 252° West  Level FlightAware Approximate
10:15AM 65.8709 -34.3779 252° West  Level FlightAware Approximate
10:16AM 65.8335 -34.6462 251° West  Level FlightAware Approximate
10:17AM 65.7956 -34.9138 251° West  Level FlightAware Approximate
10:18AM 65.7572 -35.1804 251° West  Level FlightAware Approximate
10:19AM 65.7182 -35.4462 250° West  Level FlightAware Approximate
10:20AM 65.6788 -35.7112 250° West  Level FlightAware Approximate
10:21AM 65.6389 -35.9754 250° West  Level FlightAware Approximate
10:22AM 65.5986 -36.2387 250° West  Level FlightAware Approximate
10:23AM 65.5579 -36.5013 250° West  Level FlightAware Approximate
10:24AM 65.5166 -36.7630 249° West  Level FlightAware Approximate
10:25AM 65.4749 -37.0239 249° West  Level FlightAware Approximate
10:26AM 65.4328 -37.2840 249° West  Level FlightAware Approximate
10:27AM 65.3903 -37.5432 249° West  Level FlightAware Approximate
10:28AM 65.3472 -37.8016 248° West  Level FlightAware Approximate
10:29AM 65.3038 -38.0591 248° West  Level FlightAware Approximate
10:30AM 65.2599 -38.3158 248° West  Level FlightAware Approximate
10:31AM 65.2156 -38.5716 248° West  Level FlightAware Approximate
10:32AM 65.1708 -38.8266 247° West  Level FlightAware Approximate
10:33AM 65.1256 -39.0807 247° West  Level FlightAware Approximate
10:34AM 65.0800 -39.3339 247° West  Level FlightAware Approximate
10:35AM 65.0340 -39.5863 247° West  Level FlightAware Approximate
10:36AM 64.9875 -39.8378 246° West  Level FlightAware Approximate
10:37AM 64.9406 -40.0884 246° West  Level FlightAware Approximate
10:38AM 64.8933 -40.3381 246° West  Level FlightAware Approximate
10:39AM 64.8456 -40.5870 246° West  Level FlightAware Approximate
10:40AM 64.7974 -40.8349 246° West  Level FlightAware Approximate
10:41AM 64.7489 -41.0820 245° Southwest  Level FlightAware Approximate
10:42AM 64.6999 -41.3282 245° Southwest  Level FlightAware Approximate
10:43AM 64.6506 -41.5735 245° Southwest  Level FlightAware Approximate
10:44AM 64.6008 -41.8179 245° Southwest  Level FlightAware Approximate
10:45AM 64.5506 -42.0614 244° Southwest  Level FlightAware Approximate
10:46AM 64.5000 -42.3040 244° Southwest  Level FlightAware Approximate
10:47AM 64.4491 -42.5457 244° Southwest  Level FlightAware Approximate
10:48AM 64.3977 -42.7865 244° Southwest  Level FlightAware Approximate
10:49AM 64.3459 -43.0264 244° Southwest  Level FlightAware Approximate
10:50AM 64.2938 -43.2654 243° Southwest  Level FlightAware Approximate
10:51AM 64.2412 -43.5035 243° Southwest  Level FlightAware Approximate
10:52AM 64.1883 -43.7407 243° Southwest  Level FlightAware Approximate
10:53AM 64.1350 -43.9770 243° Southwest  Level FlightAware Approximate
10:54AM 64.0813 -44.2124 243° Southwest  Level FlightAware Approximate
10:55AM 64.0272 -44.4468 242° Southwest  Level FlightAware Approximate
10:56AM 63.9728 -44.6804 242° Southwest  Level FlightAware Approximate
10:57AM 63.9180 -44.9130 242° Southwest  Level FlightAware Approximate
10:58AM 63.8628 -45.1448 242° Southwest  Level FlightAware Approximate
10:59AM 63.8072 -45.3756 241° Southwest  Level FlightAware Approximate
11:00AM 63.7513 -45.6055 241° Southwest  Level FlightAware Approximate
11:01AM 63.6950 -45.8345 241° Southwest  Level FlightAware Approximate
11:02AM 63.6383 -46.0626 241° Southwest  Level FlightAware Approximate
11:03AM 63.5813 -46.2897 241° Southwest  Level FlightAware Approximate
11:04AM 63.5239 -46.5160 240° Southwest  Level FlightAware Approximate
11:05AM 63.4662 -46.7414 240° Southwest  Level FlightAware Approximate
11:06AM 63.4081 -46.9658 240° Southwest  Level FlightAware Approximate
11:07AM 63.3497 -47.1893 240° Southwest  Level FlightAware Approximate
11:08AM 63.2909 -47.4120 240° Southwest  Level FlightAware Approximate
11:09AM 63.2318 -47.6337 239° Southwest  Level FlightAware Approximate
11:10AM 63.1723 -47.8545 239° Southwest  Level FlightAware Approximate
11:11AM 63.1125 -48.0744 239° Southwest  Level FlightAware Approximate
11:12AM 63.0524 -48.2934 239° Southwest  Level FlightAware Approximate
11:13AM 62.9919 -48.5115 239° Southwest  Level FlightAware Approximate
11:14AM 62.9311 -48.7287 238° Southwest  Level FlightAware Approximate
11:15AM 62.8699 -48.9449 238° Southwest  Level FlightAware Approximate
11:16AM 62.8084 -49.1603 238° Southwest  Level FlightAware Approximate
11:17AM 62.7466 -49.3748 238° Southwest  Level FlightAware Approximate
11:18AM 62.6845 -49.5884 238° Southwest  Level FlightAware Approximate
11:19AM 62.6221 -49.8011 238° Southwest  Level FlightAware Approximate
11:20AM 62.5593 -50.0129 237° Southwest  Level FlightAware Approximate
11:21AM 62.4962 -50.2238 237° Southwest  Level FlightAware Approximate
11:22AM 62.4328 -50.4338 237° Southwest  Level FlightAware Approximate
11:23AM 62.3690 -50.6429 237° Southwest  Level FlightAware Approximate
11:24AM 62.3050 -50.8511 237° Southwest  Level FlightAware Approximate
11:25AM 62.2406 -51.0584 236° Southwest  Level FlightAware Approximate
11:26AM 62.1760 -51.2649 236° Southwest  Level FlightAware Approximate
11:27AM 62.1110 -51.4704 236° Southwest  Level FlightAware Approximate
11:28AM 62.0457 -51.6751 236° Southwest  Level FlightAware Approximate
11:29AM 61.9802 -51.8789 236° Southwest  Level FlightAware Approximate
11:30AM 61.9143 -52.0818 235° Southwest  Level FlightAware Approximate
11:31AM 61.8481 -52.2839 235° Southwest  Level FlightAware Approximate
11:31AM 63.4333 -55.8000 221° Southwest 470 541 37,000  Level Gander Center
11:32AM 61.7817 -52.4851 235° Southwest  Level FlightAware Approximate
11:33AM 61.7149 -52.6854 235° Southwest  Level FlightAware Approximate
11:33AM 63.3514 -56.0566 235° Southwest  Level FlightAware Approximate
11:33AM 63.3333 -56.1500 235° Southwest 430 495 37,000  Level Gander Center
11:34AM 61.6479 -52.8848 235° Southwest  Level FlightAware Approximate
11:34AM 63.2500 -56.3833 232° Southwest 460 529 37,000  Level Gander Center
11:35AM 61.5806 -53.0834 235° Southwest  Level FlightAware Approximate
11:35AM 63.1833 -56.6167 238° Southwest 470 541 37,000  Level Gander Center
11:36AM 61.4903 -53.2471 221° Southwest  Level Estimated
11:36AM 63.1000 -56.8500 232° Southwest 470 541 37,000  Level Gander Center
11:37AM 61.3999 -53.4099 221° Southwest  Level Estimated
11:37AM 63.0333 -57.0833 238° Southwest 470 541 37,000  Level Gander Center
11:38AM 62.9500 -57.3167 232° Southwest 470 541 37,000  Level Gander Center
11:39AM 62.8667 -57.5833 236° Southwest 470 541 37,000  Level Gander Center
11:40AM 62.8167 -57.8000 243° Southwest 470 541 37,000  Level Gander Center
11:41AM 62.7333 -57.9167 213° Southwest 480 552 37,000  Level Montreal Center
11:42AM 62.6667 -58.1500 238° Southwest 470 541 37,000  Level Montreal Center
11:43AM 62.5833 -58.3833 232° Southwest 470 541 37,000  Level Montreal Center
11:44AM 62.5167 -58.6167 238° Southwest 470 541 37,000  Level Montreal Center
11:45AM 62.4333 -58.8333 230° Southwest 470 541 37,000  Level Montreal Center
11:46AM 62.3667 -59.0667 238° Southwest 470 541 37,000  Level Montreal Center
11:47AM 62.2833 -59.3000 233° Southwest 470 541 37,000  Level Montreal Center
11:48AM 62.2167 -59.5167 237° Southwest 470 541 37,000  Level Montreal Center
11:49AM 62.1333 -59.7833 236° Southwest 470 541 37,000  Level Montreal Center
11:50AM 62.0667 -60.0000 237° Southwest 480 552 37,000  Level Montreal Center
11:51AM 61.9833 -60.2333 233° Southwest 470 541 37,000  Level Montreal Center
11:52AM 61.9000 -60.4500 231° Southwest 480 552 37,000  Level Montreal Center
11:53AM 61.8333 -60.6667 237° Southwest 480 552 37,000  Level Montreal Center
11:54AM 61.7333 -60.9000 228° Southwest 480 552 37,000  Level Montreal Center
11:55AM 61.6667 -61.1000 235° Southwest 480 552 37,000  Level Montreal Center
11:56AM 61.5667 -61.3333 228° Southwest 480 552 37,000  Level Montreal Center
11:57AM 61.5000 -61.5833 241° Southwest 480 552 37,000  Level Montreal Center
11:58AM 61.4167 -61.8000 231° Southwest 470 541 37,000  Level Montreal Center
11:59AM 61.3333 -62.0000 229° Southwest 480 552 37,000  Level Montreal Center
12:00PM 61.2500 -62.2167 231° Southwest 470 541 37,000  Level Montreal Center
12:01PM 61.1667 -62.4333 231° Southwest 470 541 37,000  Level Montreal Center
12:02PM 61.1000 -62.6500 238° Southwest 500 575 37,000  Level Montreal Center
12:03PM 61.0167 -62.8500 229° Southwest 480 552 37,000  Level Montreal Center
12:04PM 60.9333 -63.0667 232° Southwest 470 541 37,000  Level Montreal Center
12:05PM 60.8333 -63.3000 229° Southwest 480 552 37,000  Level Montreal Center
12:06PM 60.7500 -63.5167 232° Southwest 480 552 37,100 300 Climbing Montreal Center
12:07PM 60.6667 -63.7500 234° Southwest 480 552 37,600 420 Climbing Montreal Center
12:08PM 60.5833 -63.9500 230° Southwest 470 541 38,000 180 Climbing Montreal Center
12:09PM 60.5000 -64.1667 232° Southwest 470 541 38,000  Level Montreal Center
12:10PM 60.4167 -64.3667 230° Southwest 480 552 38,000  Level Montreal Center
12:11PM 60.3333 -64.5667 230° Southwest 470 541 38,000  Level Montreal Center
12:12PM 60.2500 -64.7667 230° Southwest 470 541 38,000  Level Montreal Center
12:13PM 60.1667 -64.9667 230° Southwest 470 541 38,000  Level Montreal Center
12:14PM 60.0667 -65.1500 222° Southwest 470 541 38,000  Level Montreal Center
12:15PM 59.9667 -65.3333 223° Southwest 470 541 38,000  Level Montreal Center
12:16PM 59.8667 -65.5000 220° Southwest 470 541 38,000  Level Montreal Center
12:17PM 59.7833 -65.6833 228° Southwest 480 552 38,000  Level Montreal Center
12:18PM 59.6667 -65.8500 216° Southwest 480 552 38,000  Level Montreal Center
12:19PM 59.5667 -66.0167 220° Southwest 480 552 38,000  Level Montreal Center
12:20PM 59.4833 -66.1833 225° Southwest 480 552 38,000  Level Montreal Center
12:21PM 59.3667 -66.3833 221° Southwest 480 552 38,000  Level Montreal Center
12:22PM 59.2667 -66.5333 217° Southwest 480 552 38,000  Level Montreal Center
12:23PM 59.1667 -66.7000 221° Southwest 480 552 38,000  Level Montreal Center
12:24PM 59.0667 -66.8833 223° Southwest 480 552 38,000  Level Montreal Center
12:25PM 58.9667 -67.0500 221° Southwest 480 552 38,000  Level Montreal Center
12:26PM 58.8500 -67.2000 214° Southwest 480 552 38,000  Level Montreal Center
12:27PM 58.7667 -67.3500 223° Southwest 480 552 38,000  Level Montreal Center
12:28PM 58.6333 -67.5500 218° Southwest 480 552 38,000  Level Montreal Center
12:29PM 58.5333 -67.8000 233° Southwest 480 552 38,000  Level Gander Center
12:30PM 58.4333 -67.8833 204° Southwest 480 552 38,000  Level Montreal Center
12:31PM 58.3333 -68.0333 218° Southwest 480 552 38,000  Level Montreal Center
12:32PM 58.2167 -68.1833 214° Southwest 480 552 38,000  Level Montreal Center
12:33PM 58.0833 -68.4500 227° Southwest 490 564 38,000  Level Montreal Center
12:34PM 57.9833 -68.5667 212° Southwest 490 564 38,000  Level Montreal Center
12:35PM 57.8833 -68.7167 219° Southwest 480 552 38,000  Level Montreal Center
12:36PM 57.7667 -68.8500 211° Southwest 480 552 38,000  Level Montreal Center
12:37PM 57.6667 -69.0000 219° Southwest 480 552 38,000  Level Montreal Center
12:38PM 57.5500 -69.1500 215° Southwest 480 552 38,000  Level Montreal Center
12:39PM 57.4333 -69.3000 215° Southwest 480 552 38,000  Level Montreal Center
12:40PM 57.3333 -69.4500 219° Southwest 480 552 38,000  Level Montreal Center
12:41PM 57.2167 -69.5833 212° Southwest 480 552 38,000  Level Montreal Center
12:42PM 57.1000 -69.7333 215° Southwest 480 552 38,000  Level Montreal Center
12:43PM 57.0000 -69.8667 216° Southwest 480 552 38,000  Level Montreal Center
12:44PM 56.8833 -70.0167 215° Southwest 480 552 38,000  Level Montreal Center
12:45PM 56.7667 -70.1500 212° Southwest 480 552 38,000  Level Montreal Center
12:46PM 56.6833 -70.2833 221° Southwest 480 552 38,000  Level Montreal Center
12:47PM 56.5667 -70.4333 215° Southwest 480 552 38,000  Level Montreal Center
12:48PM 56.4500 -70.5667 212° Southwest 480 552 38,000  Level Montreal Center
12:49PM 56.3500 -70.7000 216° Southwest 480 552 38,000  Level Montreal Center
12:50PM 56.2333 -70.8500 216° Southwest 480 552 38,000  Level Montreal Center
12:51PM 56.1167 -70.9833 213° Southwest 480 552 38,000  Level Montreal Center
12:52PM 56.0000 -71.1167 213° Southwest 480 552 38,000  Level Montreal Center
12:53PM 55.9000 -71.2500 217° Southwest 480 552 38,000  Level Montreal Center
12:54PM 55.7833 -71.3833 213° Southwest 480 552 38,000  Level Montreal Center
12:55PM 55.6667 -71.5167 213° Southwest 480 552 38,000  Level Montreal Center
12:56PM 55.5500 -71.6500 213° Southwest 480 552 38,000  Level Montreal Center
12:57PM 55.4333 -71.7833 213° Southwest 480 552 38,000  Level Montreal Center
12:58PM 55.3500 -71.9000 219° Southwest 480 552 38,000  Level Montreal Center
12:59PM 55.2167 -72.0333 210° Southwest 480 552 38,000  Level Montreal Center
01:00PM 55.1000 -72.1667 213° Southwest 480 552 38,000  Level Montreal Center
01:01PM 54.9833 -72.3000 213° Southwest 480 552 38,000  Level Montreal Center
01:02PM 54.8833 -72.4167 214° Southwest 480 552 38,000  Level Montreal Center
01:03PM 54.7667 -72.5500 213° Southwest 480 552 38,000  Level Montreal Center
01:04PM 54.6667 -72.6667 214° Southwest 480 552 38,000  Level Montreal Center
01:05PM 54.5500 -72.8000 214° Southwest 480 552 38,000  Level Montreal Center
01:06PM 54.4333 -72.9167 210° Southwest 480 552 38,000  Level Montreal Center
01:07PM 54.3167 -73.0500 214° Southwest 480 552 38,000  Level Montreal Center
01:08PM 54.2000 -73.1667 210° Southwest 480 552 38,000  Level Montreal Center
01:09PM 54.0833 -73.3000 214° Southwest 480 552 38,000  Level Montreal Center
01:10PM 53.9667 -73.4167 210° Southwest 480 552 38,000  Level Montreal Center
01:11PM 53.8667 -73.5333 215° Southwest 480 552 38,000  Level Montreal Center
01:12PM 53.7333 -73.6500 207° Southwest 480 552 38,000  Level Montreal Center
01:13PM 53.6167 -73.7500 207° Southwest 470 541 38,000  Level Montreal Center
01:14PM 53.5000 -73.8667 211° Southwest 480 552 38,000  Level Montreal Center
01:15PM 53.3833 -73.9667 207° Southwest 480 552 38,000  Level Montreal Center
01:16PM 53.2667 -74.0833 211° Southwest 480 552 38,000  Level Montreal Center
01:17PM 53.1333 -74.1667 201° Southwest 480 552 38,000  Level Montreal Center
01:18PM 53.0167 -74.2500 203° Southwest 480 552 38,000  Level Montreal Center
01:19PM 52.9167 -74.3667 215° Southwest 480 552 38,000  Level Montreal Center
01:20PM 52.8000 -74.4667 207° Southwest 480 552 38,000  Level Montreal Center
01:21PM 52.6833 -74.5500 203° Southwest 480 552 38,000  Level Montreal Center
01:22PM 52.5500 -74.6667 208° Southwest 490 564 38,000  Level Montreal Center
01:23PM 52.4167 -74.7500 201° Southwest 480 552 38,000  Level Montreal Center
01:24PM 52.3000 -74.8333 204° Southwest 470 541 38,000  Level Montreal Center
01:25PM 52.1833 -74.9500 212° Southwest 470 541 38,000  Level Montreal Center
01:26PM 52.0500 -75.0333 201° Southwest 470 541 38,000  Level Montreal Center
01:27PM 51.9333 -75.1500 212° Southwest 480 552 38,000  Level Montreal Center
01:28PM 51.8167 -75.2333 204° Southwest 470 541 38,000  Level Montreal Center
01:29PM 51.7000 -75.3167 204° Southwest 470 541 38,000  Level Montreal Center
01:30PM 51.5833 -75.4167 208° Southwest 470 541 38,000  Level Montreal Center
01:31PM 51.4667 -75.5000 204° Southwest 470 541 38,000  Level Montreal Center
01:32PM 51.3500 -75.5833 204° Southwest 470 541 38,000  Level Montreal Center
01:33PM 51.2167 -75.6667 201° Southwest 470 541 38,000  Level Montreal Center
01:34PM 51.1000 -75.7833 212° Southwest 470 541 38,000  Level Montreal Center
01:35PM 50.9833 -75.8500 200° South 480 552 38,000  Level Montreal Center
01:36PM 50.8667 -75.9333 204° Southwest 480 552 38,000  Level Montreal Center
01:37PM 50.7500 -76.0500 212° Southwest 470 541 38,000  Level Montreal Center
01:38PM 50.6333 -76.1167 200° South 470 541 38,000  Level Montreal Center
01:39PM 50.5000 -76.2333 209° Southwest 470 541 38,000  Level Montreal Center
01:40PM 50.3833 -76.3167 204° Southwest 470 541 38,000  Level Montreal Center
01:41PM 50.2667 -76.3833 200° South 470 541 38,000  Level Montreal Center
01:42PM 50.1500 -76.4667 205° Southwest 470 541 38,000  Level Montreal Center
01:43PM 50.0167 -76.5667 206° Southwest 470 541 38,000  Level Montreal Center
01:44PM 49.9000 -76.6500 205° Southwest 470 541 38,000  Level Montreal Center
01:45PM 49.7833 -76.7167 200° South 470 541 38,000  Level Montreal Center
01:46PM 49.6667 -76.8167 209° Southwest 470 541 38,000  Level Montreal Center
01:47PM 49.5500 -76.9000 205° Southwest 460 529 38,000  Level Montreal Center
01:48PM 49.4167 -76.9667 198° South 480 552 38,000  Level Montreal Center
01:49PM 49.3000 -77.0500 205° Southwest 480 552 38,000  Level Montreal Center
01:50PM 49.1833 -77.1500 209° Southwest 460 529 38,000  Level Montreal Center
01:51PM 49.0667 -77.2167 201° Southwest 480 552 38,000  Level Montreal Center
01:52PM 48.9500 -77.3000 205° Southwest 470 541 38,000  Level Montreal Center
01:53PM 48.8167 -77.4000 206° Southwest 470 541 38,000  Level Montreal Center
01:54PM 48.7000 -77.4667 201° Southwest 470 541 38,000  Level Montreal Center
01:55PM 48.5833 -77.5333 201° Southwest 470 541 38,000  Level Montreal Center
01:56PM 48.4667 -77.6333 210° Southwest 470 541 38,000  Level Montreal Center
01:57PM 48.3500 -77.7167 205° Southwest 460 529 38,000  Level Montreal Center
01:58PM 48.2333 -77.7833 201° Southwest 460 529 38,000  Level Montreal Center
01:59PM 48.1167 -77.8500 201° Southwest 460 529 38,000  Level Montreal Center
02:00PM 47.9833 -77.9167 199° South 460 529 38,000  Level Montreal Center
02:01PM 47.8667 -78.0000 206° Southwest 460 529 38,000  Level Montreal Center
02:02PM 47.7500 -78.0667 201° Southwest 460 529 38,000  Level Montreal Center
02:03PM 47.6167 -78.1333 199° South 470 541 38,000  Level Montreal Center
02:04PM 47.5000 -78.2000 201° Southwest 470 541 38,000  Level Montreal Center
02:05PM 47.3833 -78.2667 201° Southwest 460 529 38,000  Level Montreal Center
02:06PM 47.2667 -78.3500 206° Southwest 460 529 38,000  Level Montreal Center
02:07PM 47.1500 -78.4167 201° Southwest 460 529 38,000  Level Montreal Center
02:08PM 47.0167 -78.4833 199° South 460 529 38,000  Level Montreal Center
02:09PM 46.9000 -78.5500 201° Southwest 460 529 38,000  Level Montreal Center
02:10PM 46.7667 -78.6167 199° South 470 541 38,000  Level Montreal Center
02:11PM 46.6833 -78.6667 202° Southwest 470 541 38,000  Level Toronto Center
02:12PM 46.5667 -78.7167 196° South 470 541 38,000  Level Toronto Center
02:13PM 46.4333 -78.7833 199° South 460 529 38,000  Level Toronto Center
02:14PM 46.3167 -78.8667 206° Southwest 460 529 38,000  Level Toronto Center
02:15PM 46.2000 -78.9167 197° South 460 529 38,000  Level Toronto Center
02:21PM 45.4680 -79.3321 201° Southwest 466 536 38,000  Level FlightAware ADS-B (EPGD / GDN)
02:22PM 45.4203 -79.3573 201° Southwest 465 535 38,000  Level FlightAware ADS-B (EPGD / GDN)
02:24PM 45.1036 -79.5237 200° South 463 533 38,000  Level FlightAware ADS-B
02:25PM 45.0292 -79.5623 201° Southwest 450 518 38,000  Level FlightAware ADS-B
02:26PM 44.8862 -79.6365 201° Southwest 447 514 38,000  Level FlightAware ADS-B
02:27PM 44.8118 -79.6750 201° Southwest 447 514 38,000  Level FlightAware ADS-B
02:28PM 44.6893 -79.7381 201° Southwest 448 516 38,000  Level FlightAware ADS-B
02:29PM 44.5711 -79.8053 207° Southwest 450 518 38,000  Level FlightAware ADS-B (EPGD / GDN)
02:29PM 44.4939 -79.8709 214° Southwest 446 513 38,000  Level FlightAware ADS-B (CYKF)
02:30PM 44.4939 -79.8709 213° Southwest 445 512 38,000  Level FlightAware ADS-B (CYKF)
02:31PM 44.2841 -80.0615 213° Southwest 443 510 38,000  Level FlightAware ADS-B (CYKF)
02:32PM 44.1793 -80.1550 213° Southwest 444 511 38,000  Level FlightAware ADS-B (CYKF)
02:33PM 44.0743 -80.2483 213° Southwest 442 509 38,000  Level FlightAware ADS-B (CYKF)
02:34PM 43.9869 -80.3256 213° Southwest 439 505 38,000  Level FlightAware ADS-B (CZBA)
02:35PM 43.8558 -80.4413 213° Southwest 438 504 38,000  Level FlightAware ADS-B (CYKF)
02:36PM 43.8041 -80.4867 212° Southwest 437 503 38,000  Level FlightAware ADS-B (CZBA)
02:37PM 43.7201 -80.5603 212° Southwest 433 498 38,000  Level FlightAware ADS-B (CZBA)
02:37PM 43.6557 -80.6166 212° Southwest 431 496 38,000  Level FlightAware ADS-B (CYKF)
02:38PM 43.5791 -80.6832 212° Southwest 428 493 38,000  Level FlightAware ADS-B (CYKF)
02:39PM 43.5149 -80.7390 212° Southwest 428 493 38,000  Level FlightAware ADS-B (CYKF)
02:40PM 43.3580 -80.8748 212° Southwest 430 495 38,000  Level FlightAware ADS-B (CYKF)
02:41PM 43.2614 -80.9580 212° Southwest 430 495 38,000  Level FlightAware ADS-B (CYKF)
02:42PM 43.1543 -81.0495 212° Southwest 429 494 38,000  Level FlightAware ADS-B (CYKF)
02:43PM 43.0493 -81.1387 211° Southwest 428 493 38,000  Level FlightAware ADS-B (CYKF)
02:44PM 42.9446 -81.2055 205° Southwest 429 494 38,000  Level FlightAware ADS-B (CYKF)
02:45PM 42.8334 -81.2755 205° Southwest 427 491 38,000  Level FlightAware ADS-B (CYKF)
02:46PM 42.7410 -81.3324 204° Southwest 427 491 38,000  Level FlightAware ADS-B (CYKF)
02:47PM 42.6453 -81.3910 204° Southwest 425 489 38,000  Level FlightAware ADS-B (CYKF)
02:48PM 42.5415 -81.4544 204° Southwest 424 488 38,000  Level FlightAware ADS-B (CYKF)
02:49PM 42.5029 -81.4779 204° Southwest 422 486 38,000  Level FlightAware ADS-B (CYKF)
02:50PM 42.3333 -81.5500 204° Southwest 420 483 38,000  Level Toronto Center
02:51PM 42.2939 -81.6044 226° Southwest 422 486 38,000  Level Cleveland Center
02:52PM 42.1675 -81.6794 204° Southwest 422 486 38,000  Level Cleveland Center
02:53PM 42.0589 -81.7464 205° Southwest 422 486 38,000  Level Cleveland Center
02:54PM 41.9508 -81.8103 204° Southwest 422 486 38,000  Level Cleveland Center
02:55PM 41.8436 -81.8747 204° Southwest 422 486 38,000  Level Cleveland Center
02:56PM 41.7372 -81.9381 204° Southwest 422 486 38,000  Level Cleveland Center
02:57PM 41.6300 -82.0011 204° Southwest 421 484 38,000  Level Cleveland Center
02:58PM 41.5047 -82.0758 204° Southwest 421 484 38,000  Level Cleveland Center
02:59PM 41.3975 -82.1381 204° Southwest 421 484 38,000  Level Cleveland Center
03:00PM 41.2844 -82.1872 198° South 425 489 38,000  Level Cleveland Center
03:01PM 41.1708 -82.2297 196° South 426 490 38,000  Level Cleveland Center
03:02PM 41.0567 -82.2703 195° South 425 489 38,000  Level Cleveland Center
03:03PM 40.9417 -82.3108 195° South 425 489 38,000  Level Cleveland Center
03:04PM 40.8456 -82.3453 195° South 425 489 38,000  Level Indianapolis Center
03:10PM 40.1786 -82.5782 193° South 424 488 38,000  Level FlightAware ADS-B
03:10PM 40.1188 -82.5895 185° South 431 496 38,000  Level FlightAware ADS-B
03:11PM 40.0551 -82.5939 183° South 432 497 38,000  Level FlightAware ADS-B
03:11PM 40.0143 -82.5972 184° South 432 497 38,000  Level FlightAware ADS-B
03:12PM 39.9497 -82.6021 183° South 433 498 38,000  Level FlightAware ADS-B
03:12PM 39.8762 -82.6071 183° South 434 499 38,000  Level FlightAware ADS-B
03:13PM 39.8276 -82.6104 183° South 433 498 38,000  Level FlightAware ADS-B
03:13PM 39.7436 -82.6161 183° South 430 495 38,000  Level FlightAware ADS-B
03:14PM 39.6751 -82.6207 183° South 429 494 38,000  Level FlightAware ADS-B
03:14PM 39.6153 -82.6248 183° South 428 493 38,000  Level FlightAware ADS-B
03:15PM 39.5392 -82.6299 183° South 427 491 38,000  Level FlightAware ADS-B
03:15PM 39.4724 -82.6343 183° South 426 490 38,000  Level FlightAware ADS-B
03:16PM 39.4090 -82.6386 183° South 428 493 38,000  Level FlightAware ADS-B
03:17PM 39.3398 -82.6432 183° South 428 493 38,000  Level FlightAware ADS-B
03:17PM 39.2578 -82.6487 183° South 428 493 38,000  Level FlightAware ADS-B
03:18PM 39.1686 -82.6546 183° South 426 490 38,000  Level FlightAware ADS-B
03:19PM 39.0875 -82.6599 183° South 423 487 38,000  Level FlightAware ADS-B
03:19PM 39.0289 -82.6638 183° South 422 486 38,000  Level FlightAware ADS-B
03:20PM 38.9678 -82.6679 183° South 422 486 38,000  Level FlightAware ADS-B
03:21PM 38.8667 -82.6746 183° South 420 483 38,000  Level FlightAware ADS-B
03:21PM 38.8005 -82.6789 183° South 421 484 38,000  Level FlightAware ADS-B
03:22PM 38.7308 -82.6835 183° South 422 486 38,000  Level FlightAware ADS-B
03:22PM 38.6643 -82.6878 183° South 421 484 38,000  Level FlightAware ADS-B
03:23PM 38.5531 -82.6942 183° South 422 486 38,000  Level Indianapolis Center
03:24PM 38.4347 -82.7025 183° South 422 486 38,000  Level Indianapolis Center
03:25PM 38.3156 -82.7100 183° South 423 487 38,000  Level Indianapolis Center
03:26PM 38.1953 -82.7175 183° South 426 490 38,000  Level Indianapolis Center
03:28PM 38.0750 -82.7267 183° South 429 494 38,000  Level Indianapolis Center
03:29PM 37.9347 -82.7347 183° South 429 494 38,000  Level Indianapolis Center
03:30PM 37.8156 -82.7431 183° South 429 494 38,000  Level Indianapolis Center
03:31PM 37.6983 -82.7578 186° South 428 493 38,000  Level Indianapolis Center
03:32PM 37.5897 -82.8078 200° South 418 481 38,000  Level Indianapolis Center
03:33PM 37.4894 -82.8747 208° Southwest 411 473 38,000  Level Indianapolis Center
03:34PM 37.3722 -82.9522 208° Southwest 411 473 38,000  Level Indianapolis Center
03:35PM 37.2731 -83.0183 208° Southwest 408 470 38,000  Level Indianapolis Center
03:36PM 37.1728 -83.0833 207° Southwest 408 470 38,000  Level Indianapolis Center
03:37PM 37.0750 -83.1475 208° Southwest 404 465 38,000  Level Indianapolis Center
03:38PM 36.9622 -83.2208 207° Southwest 400 460 38,000  Level Indianapolis Center
03:39PM 36.8650 -83.2833 207° Southwest 399 459 38,000  Level Indianapolis Center
03:40PM 36.7681 -83.3458 207° Southwest 397 457 38,000  Level Indianapolis Center
03:41PM 36.6703 -83.4081 207° Southwest 397 457 38,000  Level Indianapolis Center
03:42PM 36.5722 -83.4706 207° Southwest 397 457 38,000  Level Indianapolis Center
03:43PM 36.4617 -83.5408 207° Southwest 396 456 38,000  Level Indianapolis Center
03:44PM 36.3636 -83.6047 208° Southwest 396 456 38,000  Level Indianapolis Center
03:45PM 36.2647 -83.6656 206° Southwest 396 456 38,000  Level Indianapolis Center
03:46PM 36.1669 -83.7292 208° Southwest 396 456 38,000  Level Indianapolis Center
03:47PM 36.1100 -83.7664 208° Southwest 390 449 38,000  Level Atlanta Center
03:48PM 36.0039 -83.8333 207° Southwest 390 449 38,000  Level Atlanta Center
03:49PM 35.9039 -83.8900 205° Southwest 390 449 38,000  Level Atlanta Center
03:55PM 35.1990 -84.0656 191° South 408 470 38,000  Level FlightAware ADS-B (KDZJ)
03:55PM 35.1212 -84.0842 191° South 407 468 38,000  Level FlightAware ADS-B (KDZJ)
03:56PM 35.0590 -84.0991 191° South 407 468 38,000  Level FlightAware ADS-B (KDZJ)
03:57PM 34.9743 -84.1193 191° South 408 470 38,000  Level FlightAware ADS-B (KDZJ)
03:57PM 34.9020 -84.1366 191° South 408 470 38,000  Level FlightAware ADS-B (KDZJ)
03:58PM 34.8274 -84.1543 191° South 408 470 38,000  Level FlightAware ADS-B (KDZJ)
03:59PM 34.7514 -84.1724 191° South 409 471 38,000  Level FlightAware ADS-B (KDZJ)
03:59PM 34.6808 -84.1891 191° South 410 472 38,000  Level FlightAware ADS-B (KDZJ)
04:00PM 34.6022 -84.2077 191° South 407 468 38,000  Level FlightAware ADS-B (KDZJ)
04:01PM 34.5303 -84.2247 191° South 395 455 38,000  Level FlightAware ADS-B (KDZJ)
04:01PM 34.4548 -84.2425 191° South 394 453 38,000  Level FlightAware ADS-B (KDZJ)
04:02PM 34.3825 -84.2595 191° South 393 452 38,000  Level FlightAware ADS-B (KDZJ)
04:03PM 34.3100 -84.2765 191° South 392 451 38,000  Level FlightAware ADS-B (KDZJ)
04:03PM 34.2370 -84.2937 191° South 397 457 38,000  Level FlightAware ADS-B (KDZJ)
04:04PM 34.1654 -84.3105 191° South 397 457 38,000  Level FlightAware ADS-B (KDZJ)
04:05PM 34.0930 -84.3275 191° South 396 456 38,000  Level FlightAware ADS-B (KDZJ)
04:05PM 34.0214 -84.3441 191° South 394 453 38,000  Level FlightAware ADS-B (KDZJ)
04:06PM 33.9535 -84.3600 191° South 393 452 38,000  Level FlightAware ADS-B (KDZJ)
04:07PM 33.9294 -84.3667 191° South 407 468 38,000 -60 Level Atlanta Center
04:08PM 33.8208 -84.3914 191° South 401 461 37,900 -420 Descending Atlanta Center
04:09PM 33.7144 -84.4183 192° South 395 455 37,200 -480 Descending Atlanta Center
04:10PM 33.5911 -84.4378 187° South 400 460 37,000 -120 Descending Atlanta Center
04:11PM 33.4742 -84.4347 179° South 420 483 37,000  Level Atlanta Center
04:12PM 33.3700 -84.4344 180° South 430 495 37,000  Level Atlanta Center
04:13PM 33.2531 -84.4339 180° South 419 482 37,000  Level Atlanta Center
04:14PM 33.1403 -84.4308 179° South 414 476 37,000  Level Atlanta Center
04:15PM 33.0256 -84.4278 179° South 414 476 37,000  Level Atlanta Center
04:16PM 32.9108 -84.4272 180° South 414 476 37,000  Level Atlanta Center
04:17PM 32.7981 -84.4244 179° South 414 476 37,000  Level Atlanta Center
04:18PM 32.6853 -84.4164 177° South 408 470 37,000  Level Atlanta Center
04:19PM 32.5725 -84.4158 180° South 408 470 37,000  Level Atlanta Center
04:20PM 32.4578 -84.4131 179° South 408 470 37,000  Level Atlanta Center
04:21PM 32.3431 -84.4100 179° South 403 464 37,000  Level Atlanta Center
04:22PM 32.2283 -84.4072 179° South 403 464 37,000  Level Atlanta Center
04:23PM 32.0886 -84.4056 179° South 415 478 37,000  Level Jacksonville Center
04:24PM 31.9842 -84.4039 179° South 421 484 37,000  Level Jacksonville Center
04:25PM 31.8675 -84.3994 178° South 421 484 37,000  Level Jacksonville Center
04:30PM 31.2063 -84.3866 179° South 412 474 37,000  Level FlightAware ADS-B (KTLH)
04:31PM 31.1051 -84.3846 179° South 414 476 37,000  Level FlightAware ADS-B (KTLH)
04:32PM 30.9793 -84.3822 179° South 415 478 37,000  Level FlightAware ADS-B (KTLH)
04:33PM 30.9182 -84.3811 179° South 416 479 37,000  Level FlightAware ADS-B (KTLH)
04:34PM 30.7787 -84.3783 179° South 415 478 37,000  Level FlightAware ADS-B (KTLH)
04:35PM 30.7168 -84.3770 179° South 415 478 37,000  Level FlightAware ADS-B (KTLH)
04:35PM 30.6292 -84.3690 172° South 431 496 37,000  Level FlightAware ADS-B (KTLH)
04:36PM 30.5462 -84.3470 162° South 452 520 37,000  Level FlightAware ADS-B (KTLH)
04:37PM 30.4547 -84.3057 154° Southeast 468 539 37,000  Level FlightAware ADS-B (KTLH)
04:38PM 30.3638 -84.2475 150° Southeast 474 545 37,000  Level FlightAware ADS-B (KTLH)
04:39PM 30.2108 -84.1478 151° Southeast 476 548 37,000  Level FlightAware ADS-B (KTLH)
04:40PM 30.1010 -84.0763 151° Southeast 479 551 37,000  Level FlightAware ADS-B (KTLH)
04:41PM 30.0444 -84.0395 151° Southeast 480 552 37,000  Level FlightAware ADS-B (KTLH)
04:41PM 29.9794 -83.9972 151° Southeast 479 551 37,000  Level FlightAware ADS-B (KTLH)
04:42PM 29.8852 -83.9362 151° Southeast 481 554 37,000  Level FlightAware ADS-B (KTLH)
04:42PM 29.8364 -83.9039 151° Southeast 477 549 37,000  Level Miami Center
04:43PM 29.7200 -83.8278 150° Southeast 477 549 37,000  Level Miami Center
04:44PM 29.6031 -83.7525 151° Southeast 480 552 37,000  Level Miami Center
04:45PM 29.4844 -83.6775 151° Southeast 485 558 37,000  Level Miami Center
04:52PM 28.7122 -83.1870 151° Southeast 505 581 37,000  Level FlightAware ADS-B (KMCO)
04:52PM 28.6320 -83.1365 151° Southeast 506 582 37,000  Level FlightAware ADS-B (KMCO)
04:56PM 28.1702 -82.8472 151° Southeast 503 579 37,000  Level FlightAware ADS-B (KMCO)
04:57PM 28.0068 -82.7458 151° Southeast 504 580 37,000  Level FlightAware ADS-B (KMCO)
04:58PM 27.9465 -82.7082 151° Southeast 505 581 37,000  Level FlightAware ADS-B (KMCO)
04:59PM 27.7583 -82.5845 149° Southeast 506 582 37,000  Level FlightAware ADS-B (KMCO)
05:00PM 27.6582 -82.5176 149° Southeast 507 583 37,000  Level FlightAware ADS-B (KMCO)
05:01PM 27.6095 -82.4854 149° Southeast 507 583 37,000  Level FlightAware ADS-B (KMCO)
05:01PM 27.5320 -82.4339 149° Southeast 504 580 37,000  Level FlightAware ADS-B (KMCO)
05:02PM 27.4733 -82.3948 149° Southeast 498 573 37,000  Level FlightAware ADS-B (KMCO)
05:02PM 27.3941 -82.3422 149° Southeast 479 551 37,000  Level FlightAware ADS-B (KMCO)
05:04PM 27.2403 -82.2408 150° Southeast 469 540 37,000  Level FlightAware ADS-B (KMCO)
05:05PM 27.0550 -82.1188 150° Southeast 466 536 37,000  Level FlightAware ADS-B (KMCO)
05:07PM 26.9137 -82.0261 150° Southeast 459 528 37,000  Level FlightAware ADS-B (KMCO)
05:08PM 26.7981 -81.9504 150° Southeast 460 529 37,000  Level FlightAware ADS-B (KMCO)
05:08PM 26.7231 -81.9014 150° Southeast 460 529 37,000  Level FlightAware ADS-B (KMCO)
05:09PM 26.6260 -81.8381 150° Southeast 460 529 37,000  Level FlightAware ADS-B (KMCO)
05:10PM 26.5702 -81.8019 150° Southeast 460 529 37,000  Level FlightAware ADS-B (KMCO)
05:11PM 26.4908 -81.7621 160° South 447 514 37,000  Level FlightAware ADS-B (KMCO)
05:11PM 26.4327 -81.7402 160° South 448 516 37,000  Level FlightAware ADS-B (KMCO)
05:12PM 26.3280 -81.6991 161° South 448 516 37,000  Level FlightAware ADS-B (KMCO)
05:13PM 26.2486 -81.6689 161° South 450 518 37,000  Level FlightAware ADS-B (KMCO)
05:13PM 26.1992 -81.6503 161° South 452 520 37,000  Level FlightAware ADS-B (KMCO)
05:14PM 26.1305 -81.6243 161° South 454 522 37,000  Level FlightAware ADS-B (KMCO)
05:14PM 26.0491 -81.5936 161° South 460 529 37,000  Level FlightAware ADS-B (KMCO)
05:15PM 25.9535 -81.5576 161° South 462 532 37,000  Level FlightAware ADS-B (KMCO)
05:16PM 25.8766 -81.5287 161° South 466 536 37,000  Level FlightAware ADS-B (KMCO)
05:16PM 25.8154 -81.5057 161° South 469 540 37,000  Level FlightAware ADS-B (KMCO)
05:17PM 25.7218 -81.4706 161° South 473 544 37,000  Level FlightAware ADS-B (KMCO)
05:17PM 25.6627 -81.4485 161° South 475 547 37,000  Level FlightAware ADS-B (KMCO)
05:19PM 25.5503 -81.4064 161° South 471 542 37,000  Level Miami Center
05:20PM 25.3992 -81.3497 161° South 478 550 37,000 -240 Level Miami Center
05:21PM 25.2728 -81.3036 162° South 479 551 36,600 -660 Descending Miami Center
05:22PM 25.1467 -81.2564 161° South 479 551 35,700 -1,020 Descending Miami Center
05:23PM 25.0203 -81.2083 161° South 481 554 34,600 -1,020 Descending Miami Center
05:24PM 24.8903 -81.1619 162° South 488 562 33,700 -1,080 Descending Miami Center
05:25PM 24.7347 -81.1169 165° South 483 556 32,500 -1,080 Descending Miami Center
05:26PM 24.6092 -81.1111 178° South 458 527 31,500 -1,020 Descending Miami Center
05:27PM 24.4897 -81.1294 188° South 439 505 30,500 -1,020 Descending Miami Center
05:28PM 24.3750 -81.1478 188° South 421 484 29,500 -1,020 Descending Miami Center
05:29PM 24.2656 -81.1692 190° South 403 464 28,500 -1,020 Descending Miami Center
05:30PM 24.1589 -81.1864 188° South 388 447 27,400 -1,560 Descending Miami Center
05:31PM 24.0353 -81.2189 194° South 383 441 25,400 -1,980 Descending Miami Center
05:33PM 23.8843 -81.3453 225° Southwest  Level FlightAware Approximate
05:40PM 23.3103 -82.0134 228° Southwest  Level FlightAware Approximate
05:41PM 23.2292 -82.1095 226° Southwest  Level FlightAware Approximate
05:42PM 23.1456 -82.2029 212° Southwest  Level FlightAware Approximate
05:43PM 23.0634 -82.2933 231° Southwest  Level FlightAware Approximate
05:44PM 22.9801 -82.3866 223° Southwest  Level FlightAware Approximate
05:45PM 22.9667 -82.4000 223° Southwest  Level FlightAware Approximate
05:46PM 22.9891 -82.4091 223° Southwest  Level Estimated